Time;durP1;ratioP1;P1;durP2;ratioP2;P2;SDS_P1;SDS_P2;PMS_P1;PMS_P2;Temp;Humidity;BMP_temperature;BMP_pressure;BME280_temperature;BME280_humidity;BME280_pressure;Samples;Min_cycle;Max_cycle;Signal;HPM_P1;HPM_P2
2022/04/15 00:00:27;;;;;;;46.13;33.25;;;11.90;99.90;;;;;;5100380;28;20045;-67
2022/04/15 00:02:53;;;;;;;41.75;31.92;;;11.80;99.90;;;;;;5118152;28;20027;-66
2022/04/15 00:05:36;;;;;;;41.88;32.20;;;11.80;99.90;;;;;;5118071;28;20042;-67
2022/04/15 00:08:05;;;;;;;;;;;11.80;99.90;;;;;;5117787;28;20043;-67
2022/04/15 00:10:32;;;;;;;44.65;31.30;;;11.80;99.90;;;;;;5118005;28;19943;-68
2022/04/15 00:12:59;;;;;;;43.83;32.33;;;11.80;99.90;;;;;;5117913;28;20088;-67
2022/04/15 00:15:27;;;;;;;42.78;32.50;;;11.80;99.90;;;;;;5117897;28;20024;-67
2022/04/15 00:17:54;;;;;;;42.60;32.60;;;11.80;99.90;;;;;;5117825;28;20055;-67
2022/04/15 00:20:20;;;;;;;45.65;32.50;;;11.70;99.90;;;;;;5117789;28;20055;-67
2022/04/15 00:22:47;;;;;;;44.50;31.58;;;11.60;99.90;;;;;;5117843;28;20039;-67
2022/04/15 00:25:12;;;;;;;41.95;31.30;;;11.60;99.90;;;;;;5117001;28;20019;-67
2022/04/15 00:27:40;;;;;;;44.67;32.25;;;11.50;99.90;;;;;;5117701;28;20047;-67
2022/04/15 00:30:10;;;;;;;45.80;33.20;;;11.50;99.90;;;;;;5116951;28;20015;-67
2022/04/15 00:32:36;;;;;;;44.63;32.33;;;11.40;99.90;;;;;;5117669;28;20028;-67
2022/04/15 00:35:02;;;;;;;46.33;33.67;;;11.40;99.90;;;;;;5117645;28;20043;-67
2022/04/15 00:37:29;;;;;;;44.78;32.28;;;11.50;99.90;;;;;;5117616;28;20126;-68
2022/04/15 00:39:55;;;;;;;47.00;33.70;;;11.50;99.90;;;;;;5116916;28;20118;-68
2022/04/15 00:42:22;;;;;;;45.63;32.65;;;11.50;99.90;;;;;;5117545;28;20038;-68
2022/04/15 00:44:48;;;;;;;44.60;32.03;;;11.40;99.90;;;;;;5116999;28;20075;-68
2022/04/15 00:47:39;;;;;;;44.50;32.05;;;11.40;99.90;;;;;;5117420;28;20126;-68
2022/04/15 00:50:05;;;;;;;44.42;32.28;;;11.40;99.90;;;;;;5117495;28;20020;-68
2022/04/15 00:52:37;;;;;;;46.67;31.67;;;11.30;99.90;;;;;;5117328;28;20110;-68
2022/04/15 00:55:04;;;;;;;42.90;31.48;;;11.40;99.90;;;;;;5117865;28;20051;-67
2022/04/15 00:57:33;;;;;;;43.10;30.90;;;11.30;99.90;;;;;;5116804;28;20130;-68
2022/04/15 01:00:01;;;;;;;45.38;31.77;;;11.30;99.90;;;;;;5116626;28;20131;-68
2022/04/15 01:02:29;;;;;;;45.53;30.98;;;11.20;99.90;;;;;;5117651;28;20344;-68
2022/04/15 01:04:56;;;;;;;42.63;31.75;;;11.10;99.90;;;;;;5117270;28;20106;-68
2022/04/15 01:07:27;;;;;;;47.72;33.70;;;11.10;99.90;;;;;;5117346;28;20086;-68
2022/04/15 01:09:53;;;;;;;45.53;31.98;;;11.00;99.90;;;;;;5117200;28;20027;-67
2022/04/15 01:12:22;;;;;;;46.85;33.28;;;10.90;99.90;;;;;;5116749;28;20407;-68
2022/04/15 01:14:48;;;;;;;47.42;33.28;;;10.90;99.90;;;;;;5117667;28;20115;-68
2022/04/15 01:17:14;;;;;;;49.58;32.88;;;10.80;99.90;;;;;;5117329;28;20042;-68
2022/04/15 01:19:41;;;;;;;47.10;33.15;;;10.90;99.90;;;;;;5117107;28;20371;-68
2022/04/15 01:22:14;;;;;;;50.53;34.50;;;10.80;99.90;;;;;;5117214;28;20023;-67
2022/04/15 01:24:40;;;;;;;45.47;33.17;;;10.80;99.90;;;;;;5117352;28;20027;-68
2022/04/15 01:27:07;;;;;;;50.40;34.45;;;10.90;99.90;;;;;;5116255;28;20028;-68
2022/04/15 01:29:40;;;;;;;49.72;35.55;;;10.80;99.90;;;;;;5117293;28;20027;-68
2022/04/15 01:32:07;;;;;;;54.13;36.47;;;10.80;99.90;;;;;;5117227;28;20073;-67
2022/04/15 01:34:34;;;;;;;51.63;36.83;;;10.80;99.90;;;;;;5116414;28;20031;-67
2022/04/15 01:37:00;;;;;;;58.83;38.65;;;10.70;99.90;;;;;;5116997;28;20030;-67
2022/04/15 01:39:31;;;;;;;56.10;38.33;;;10.80;99.90;;;;;;5117138;28;20345;-68
2022/04/15 01:41:58;;;;;;;58.75;38.75;;;10.80;99.90;;;;;;5116917;28;20024;-68
2022/04/15 01:44:24;;;;;;;56.10;38.60;;;10.80;99.90;;;;;;5116805;28;20048;-67
2022/04/15 01:46:49;;;;;;;57.88;38.67;;;10.70;99.90;;;;;;5117153;28;20338;-67
2022/04/15 01:49:15;;;;;;;56.67;39.08;;;10.70;99.90;;;;;;5099103;28;20118;-67
2022/04/15 01:51:41;;;;;;;58.40;38.15;;;10.70;99.90;;;;;;5116856;28;20032;-67
2022/04/15 01:54:07;;;;;;;55.92;37.78;;;10.70;99.90;;;;;;5116901;28;20046;-66
2022/04/15 01:56:33;;;;;;;54.33;37.28;;;10.60;99.90;;;;;;5116867;28;20038;-68
2022/04/15 01:58:58;;;;;;;57.50;38.88;;;10.60;99.90;;;;;;5120609;28;20264;-68
2022/04/15 02:01:24;;;;;;;56.60;38.95;;;10.60;99.90;;;;;;5120681;28;20039;-68
2022/04/15 02:03:50;;;;;;;56.10;37.10;;;10.60;99.90;;;;;;5120455;28;20032;-68
2022/04/15 02:06:16;;;;;;;57.03;38.22;;;10.50;99.90;;;;;;5119704;28;20032;-68
2022/04/15 02:08:41;;;;;;;52.80;36.70;;;10.60;99.90;;;;;;5120360;28;20034;-67
2022/04/15 02:11:08;;;;;;;57.10;37.80;;;10.60;99.90;;;;;;5120298;28;20031;-68
2022/04/15 02:13:33;;;;;;;60.40;38.45;;;10.50;99.90;;;;;;5120305;28;20027;-68
2022/04/15 02:15:59;;;;;;;60.38;38.67;;;10.50;99.90;;;;;;5120415;28;20020;-68
2022/04/15 02:18:26;;;;;;;56.17;37.53;;;10.50;99.90;;;;;;5120271;28;20295;-68
2022/04/15 02:20:53;;;;;;;55.58;37.00;;;10.40;99.90;;;;;;5120014;28;20032;-68
2022/04/15 02:23:18;;;;;;;56.22;39.17;;;10.40;99.90;;;;;;5120027;28;20055;-67
2022/04/15 02:25:44;;;;;;;61.45;39.45;;;10.40;99.90;;;;;;5119984;28;20173;-67
2022/04/15 02:28:10;;;;;;;59.05;39.13;;;10.40;99.90;;;;;;5119975;28;20027;-66
2022/04/15 02:30:36;;;;;;;59.92;38.83;;;10.30;99.90;;;;;;5119916;28;20031;-66
2022/04/15 02:33:02;;;;;;;60.40;39.22;;;10.30;99.90;;;;;;5120541;28;20287;-67
2022/04/15 02:35:27;;;;;;;57.38;38.00;;;10.30;99.90;;;;;;5102222;28;20096;-67
2022/04/15 02:37:53;;;;;;;58.67;38.33;;;10.30;99.90;;;;;;5119817;28;20302;-68
2022/04/15 02:40:19;;;;;;;58.28;38.05;;;10.30;99.90;;;;;;5119423;28;20046;-68
2022/04/15 02:42:45;;;;;;;58.95;38.15;;;10.30;99.90;;;;;;5118869;28;20039;-67
2022/04/15 02:45:11;;;;;;;61.67;38.00;;;10.30;99.90;;;;;;5120278;27;20039;-67
2022/04/15 02:47:37;;;;;;;59.58;38.90;;;10.30;99.90;;;;;;5119800;28;20110;-68
2022/04/15 02:50:04;;;;;;;59.70;39.53;;;10.30;99.90;;;;;;5118852;28;20035;-68
2022/04/15 02:52:30;;;;;;;60.80;39.47;;;10.30;99.90;;;;;;5119624;28;20024;-67
2022/04/15 02:54:55;;;;;;;59.35;39.30;;;10.30;99.90;;;;;;5118959;28;20046;-67
2022/04/15 02:57:21;;;;;;;58.72;38.65;;;10.30;99.90;;;;;;5119425;28;20031;-67
2022/04/15 02:59:47;;;;;;;56.00;38.33;;;10.30;99.90;;;;;;5101661;28;20042;-67
2022/04/15 03:02:14;;;;;;;57.78;38.15;;;10.30;99.90;;;;;;5119315;28;20050;-69
2022/04/15 03:04:39;;;;;;;56.72;37.85;;;10.20;99.90;;;;;;5118487;28;20039;-68
2022/04/15 03:07:05;;;;;;;58.45;37.92;;;10.30;99.90;;;;;;5118236;28;20039;-68
2022/04/15 03:09:31;;;;;;;55.03;37.38;;;10.30;99.90;;;;;;5118925;28;20391;-67
2022/04/15 03:11:57;;;;;;;56.72;37.50;;;10.30;99.90;;;;;;5118583;28;20272;-67
2022/04/15 03:14:22;;;;;;;55.13;36.47;;;10.40;99.90;;;;;;5119124;28;20031;-67
2022/04/15 03:16:48;;;;;;;55.20;36.78;;;10.30;99.90;;;;;;5118914;28;20045;-68
2022/04/15 03:19:14;;;;;;;60.08;38.35;;;10.20;99.90;;;;;;5119031;28;20307;-68
2022/04/15 03:21:40;;;;;;;52.88;36.03;;;10.20;99.90;;;;;;5118841;28;20414;-68
2022/04/15 03:24:06;;;;;;;53.97;37.13;;;10.10;99.90;;;;;;5118922;28;20035;-67
2022/04/15 03:26:32;;;;;;;51.15;36.08;;;10.00;99.90;;;;;;5101065;28;20073;-67
2022/04/15 03:28:58;;;;;;;56.03;36.45;;;10.00;99.90;;;;;;5119054;28;20372;-67
2022/04/15 03:31:23;;;;;;;53.10;35.17;;;10.00;99.90;;;;;;5117981;28;20020;-66
2022/04/15 03:33:49;;;;;;;54.85;36.78;;;9.90;99.90;;;;;;5117957;28;20042;-67
2022/04/15 03:36:15;;;;;;;54.30;35.80;;;10.00;99.90;;;;;;5117955;28;20039;-67
2022/04/15 03:38:41;;;;;;;54.97;37.65;;;9.80;99.90;;;;;;5119197;28;20032;-68
2022/04/15 03:41:08;;;;;;;57.20;35.88;;;9.80;99.90;;;;;;5117674;28;20042;-69
2022/04/15 03:43:33;;;;;;;54.95;36.92;;;9.80;99.90;;;;;;5117728;28;20058;-68
2022/04/15 03:45:59;;;;;;;62.65;38.58;;;9.70;99.90;;;;;;5118401;28;20122;-70
2022/04/15 03:48:25;;;;;;;59.22;38.65;;;9.80;99.90;;;;;;5117643;28;20403;-68
2022/04/15 03:50:53;;;;;;;61.42;38.17;;;9.80;99.90;;;;;;5118300;28;20023;-68
2022/04/15 03:53:20;;;;;;;60.72;37.88;;;9.80;99.90;;;;;;5118327;28;20387;-68
2022/04/15 03:55:46;;;;;;;56.63;36.92;;;9.80;99.90;;;;;;5100712;28;20035;-68
2022/04/15 03:58:13;;;;;;;59.72;38.70;;;9.80;99.90;;;;;;5118277;28;20379;-67
2022/04/15 04:00:39;;;;;;;56.80;36.35;;;9.60;99.90;;;;;;5117275;28;20067;-67
2022/04/15 04:03:05;;;;;;;59.67;38.13;;;9.60;99.90;;;;;;5118722;28;20028;-67
2022/04/15 04:05:31;;;;;;;58.75;37.83;;;9.50;99.90;;;;;;5117339;28;20034;-68
2022/04/15 04:07:56;;;;;;;58.13;38.20;;;9.50;99.90;;;;;;5117266;28;20091;-68
2022/04/15 04:10:22;;;;;;;60.05;37.58;;;9.50;99.90;;;;;;5118045;28;20028;-67
2022/04/15 04:12:48;;;;;;;58.17;37.97;;;9.50;99.90;;;;;;5117949;28;20080;-67
2022/04/15 04:15:14;;;;;;;54.03;36.35;;;9.40;99.90;;;;;;5117817;28;20024;-66
2022/04/15 04:17:41;;;;;;;59.97;37.35;;;9.30;99.90;;;;;;5117800;28;20172;-66
2022/04/15 04:20:09;;;;;;;62.28;38.58;;;9.30;99.90;;;;;;5099719;28;20040;-67
2022/04/15 04:22:36;;;;;;;58.13;36.75;;;9.30;99.90;;;;;;5117750;28;20020;-67
2022/04/15 04:25:03;;;;;;;58.28;38.15;;;9.20;99.90;;;;;;5117779;28;20109;-66
2022/04/15 04:27:30;;;;;;;56.63;37.45;;;9.20;99.90;;;;;;5117566;28;20032;-66
2022/04/15 04:29:56;;;;;;;56.45;36.72;;;9.20;99.90;;;;;;5116907;28;20061;-66
2022/04/15 04:32:22;;;;;;;57.97;37.15;;;9.20;99.90;;;;;;5117712;28;20020;-68
2022/04/15 04:34:47;;;;;;;55.20;35.10;;;9.20;99.90;;;;;;5116974;28;20059;-67
2022/04/15 04:37:13;;;;;;;60.05;36.70;;;9.10;99.90;;;;;;5117588;28;20414;-68
2022/04/15 04:39:39;;;;;;;55.05;37.63;;;9.10;99.90;;;;;;5117522;28;20387;-67
2022/04/15 04:42:06;;;;;;;61.70;37.97;;;9.20;99.90;;;;;;5117680;28;20104;-66
2022/04/15 04:44:33;;;;;;;58.45;37.67;;;9.20;99.90;;;;;;5117471;28;20089;-67
2022/04/15 04:47:00;;;;;;;58.35;36.85;;;9.20;99.90;;;;;;5100024;28;20100;-68
2022/04/15 04:49:26;;;;;;;54.13;36.10;;;9.10;99.90;;;;;;5117507;28;20039;-67
2022/04/15 04:51:53;;;;;;;59.15;37.10;;;9.10;99.90;;;;;;5117568;28;20020;-66
2022/04/15 04:54:19;;;;;;;58.85;37.55;;;9.10;99.90;;;;;;5116649;28;20031;-67
2022/04/15 04:56:45;;;;;;;62.67;39.10;;;9.10;99.90;;;;;;5116458;28;20031;-67
2022/04/15 04:59:11;;;;;;;57.22;37.65;;;9.10;99.90;;;;;;5117228;28;20031;-68
2022/04/15 05:01:37;;;;;;;56.08;36.85;;;9.10;99.90;;;;;;5117284;28;20020;-67
2022/04/15 05:04:02;;;;;;;58.03;36.95;;;9.10;99.90;;;;;;5117319;28;20040;-68
2022/04/15 05:06:28;;;;;;;57.25;37.63;;;9.10;99.90;;;;;;5117297;28;20437;-67
2022/04/15 05:08:54;;;;;;;57.55;37.13;;;9.10;99.90;;;;;;5117020;28;20027;-67
2022/04/15 05:11:20;;;;;;;64.13;39.20;;;9.20;99.90;;;;;;5117160;28;20055;-67
2022/04/15 05:13:46;;;;;;;61.67;38.20;;;9.20;99.90;;;;;;5116425;28;20122;-68
2022/04/15 05:16:11;;;;;;;60.42;38.90;;;9.20;99.90;;;;;;5116728;28;20299;-67
2022/04/15 05:18:37;;;;;;;60.78;38.33;;;9.30;99.90;;;;;;5117066;28;20299;-67
2022/04/15 05:21:03;;;;;;;64.35;39.80;;;9.20;99.90;;;;;;5117126;28;20118;-67
2022/04/15 05:23:29;;;;;;;57.38;38.22;;;9.20;99.90;;;;;;5117006;28;20043;-68
2022/04/15 05:25:55;;;;;;;62.42;39.13;;;9.20;99.90;;;;;;5117349;28;20027;-68
2022/04/15 05:28:20;;;;;;;63.10;39.58;;;9.20;99.90;;;;;;5117017;28;20043;-69
2022/04/15 05:30:46;;;;;;;66.78;39.85;;;9.20;99.90;;;;;;5117340;28;20110;-68
2022/04/15 05:33:12;;;;;;;62.05;38.78;;;9.20;99.90;;;;;;5119433;28;20120;-66
2022/04/15 05:35:38;;;;;;;63.50;40.10;;;9.20;99.90;;;;;;5120908;28;20023;-66
2022/04/15 05:38:07;;;;;;;60.20;39.38;;;9.30;99.90;;;;;;5120907;28;20031;-67
2022/04/15 05:40:33;;;;;;;65.45;42.83;;;9.30;99.90;;;;;;5070686;28;20407;-67
2022/04/15 05:42:58;;;;;;;68.13;43.42;;;9.30;99.90;;;;;;5120660;28;20051;-69
2022/04/15 05:45:24;;;;;;;64.43;42.15;;;9.40;99.90;;;;;;5120540;28;20295;-67
2022/04/15 05:47:53;;;;;;;73.00;44.80;;;9.50;99.90;;;;;;5119998;28;20411;-68
2022/04/15 05:50:20;;;;;;;67.82;44.20;;;9.40;99.90;;;;;;5121154;28;20437;-68
2022/04/15 05:52:46;;;;;;;73.18;45.47;;;9.40;99.90;;;;;;5120741;28;20298;-67
2022/04/15 05:55:12;;;;;;;72.82;44.60;;;9.50;99.90;;;;;;5120623;28;20118;-68
2022/04/15 05:57:37;;;;;;;80.50;45.50;;;9.50;99.90;;;;;;5119780;28;20110;-67
2022/04/15 06:00:05;;;;;;;73.47;45.88;;;9.50;99.90;;;;;;5119835;28;20039;-67
2022/04/15 06:02:37;;;;;;;75.40;45.90;;;9.50;99.90;;;;;;5120557;28;20065;-67
2022/04/15 06:05:04;;;;;;;76.22;45.97;;;9.70;99.90;;;;;;5120410;28;20114;-68
2022/04/15 06:07:30;;;;;;;74.25;45.70;;;9.70;99.90;;;;;;5120291;28;20398;-67
2022/04/15 06:09:56;;;;;;;76.13;47.72;;;9.80;99.90;;;;;;5120194;28;20020;-68
2022/04/15 06:12:22;;;;;;;77.68;46.33;;;9.80;99.90;;;;;;5120281;28;20020;-68
2022/04/15 06:14:49;;;;;;;74.32;46.17;;;9.90;99.90;;;;;;5103329;28;20062;-68
2022/04/15 06:17:22;;;;;;;77.88;46.78;;;10.10;99.90;;;;;;5119416;28;20035;-66
2022/04/15 06:19:48;;;;;;;73.93;46.13;;;10.10;99.90;;;;;;5119501;28;20303;-67
2022/04/15 06:22:14;;;;;;;71.15;44.92;;;10.20;99.90;;;;;;5102150;28;20051;-67
2022/04/15 06:24:40;;;;;;;72.40;44.88;;;10.10;99.90;;;;;;5120218;28;20068;-69
2022/04/15 06:27:06;;;;;;;74.28;45.63;;;10.30;99.90;;;;;;5119993;28;20055;-69
2022/04/15 06:29:32;;;;;;;68.97;44.17;;;10.40;99.90;;;;;;5119947;28;20303;-69
2022/04/15 06:31:58;;;;;;;40.65;26.42;;;10.50;99.90;;;;;;5119986;28;20023;-69
2022/04/15 06:34:24;;;;;;;72.25;44.67;;;10.80;99.90;;;;;;5119338;28;20089;-69
2022/04/15 06:36:49;;;;;;;68.15;42.63;;;11.00;99.90;;;;;;5119923;28;20020;-69
2022/04/15 06:39:15;;;;;;;64.43;40.97;;;11.00;99.90;;;;;;5119832;28;20035;-68
2022/04/15 06:41:44;;;;;;;64.63;41.20;;;11.00;99.90;;;;;;5119711;28;20055;-69
2022/04/15 06:44:10;;;;;;;59.40;40.80;;;11.10;99.90;;;;;;5118980;28;20051;-69
2022/04/15 06:46:36;;;;;;;57.67;38.38;;;11.20;99.90;;;;;;5119770;28;20115;-68
2022/04/15 06:49:02;;;;;;;57.45;38.25;;;11.20;99.90;;;;;;5118825;28;20088;-65
2022/04/15 06:51:28;;;;;;;51.22;35.72;;;11.30;99.90;;;;;;5118877;28;20020;-66
2022/04/15 06:53:54;;;;;;;52.92;33.60;;;11.40;99.90;;;;;;5119138;28;20034;-67
2022/04/15 06:56:20;;;;;;;55.00;35.97;;;11.80;99.90;;;;;;5120194;28;20031;-68
2022/04/15 06:58:46;;;;;;;52.53;36.65;;;11.80;99.90;;;;;;5119687;28;20124;-68
2022/04/15 07:01:12;;;;;;;47.55;33.00;;;11.80;99.90;;;;;;5119485;28;20389;-68
2022/04/15 07:03:39;;;;;;;52.80;34.58;;;11.70;99.90;;;;;;5119422;28;20027;-68
2022/04/15 07:06:04;;;;;;;49.35;34.47;;;11.80;99.90;;;;;;5119564;28;20051;-68
2022/04/15 07:08:30;;;;;;;52.50;34.38;;;11.80;99.90;;;;;;5119187;28;20397;-68
2022/04/15 07:10:56;;;;;;;52.47;34.00;;;11.80;99.90;;;;;;5119139;28;20024;-68
2022/04/15 07:13:22;;;;;;;49.33;33.33;;;11.90;99.90;;;;;;5119632;28;20413;-67
2022/04/15 07:15:48;;;;;;;49.03;32.60;;;12.00;99.90;;;;;;5118389;28;20046;-68
2022/04/15 07:18:13;;;;;;;46.50;30.73;;;12.10;99.90;;;;;;5118406;28;20311;-66
2022/04/15 07:20:39;;;;;;;42.72;30.42;;;12.40;99.90;;;;;;5119679;28;20031;-67
2022/04/15 07:23:05;;;;;;;40.55;27.88;;;12.50;99.90;;;;;;5119030;28;20035;-67
2022/04/15 07:25:33;;;;;;;41.15;27.90;;;12.50;99.90;;;;;;5118222;28;20118;-68
2022/04/15 07:28:00;;;;;;;35.97;26.30;;;12.60;99.90;;;;;;5118294;28;20039;-67
2022/04/15 07:30:27;;;;;;;38.78;25.08;;;12.60;99.90;;;;;;5118828;28;20334;-68
2022/04/15 07:32:53;;;;;;;31.73;23.60;;;12.70;99.90;;;;;;5118807;28;20031;-68
2022/04/15 07:35:19;;;;;;;36.00;24.92;;;12.80;99.90;;;;;;5119196;28;20415;-66
2022/04/15 07:37:44;;;;;;;34.25;25.02;;;12.90;99.90;;;;;;5118584;28;20046;-67
2022/04/15 07:40:11;;;;;;;33.55;23.77;;;12.90;99.90;;;;;;5117929;28;20043;-68
2022/04/15 07:42:37;;;;;;;31.70;23.40;;;12.90;99.90;;;;;;5117678;28;20051;-66
2022/04/15 07:45:03;;;;;;;30.73;21.05;;;13.10;99.90;;;;;;5118668;28;20040;-64
2022/04/15 07:47:29;;;;;;;31.02;22.60;;;13.30;99.90;;;;;;5121465;28;20035;-68
2022/04/15 07:49:55;;;;;;;30.20;22.08;;;13.40;99.90;;;;;;5119250;28;20436;-69
2022/04/15 07:52:22;;;;;;;28.90;21.30;;;13.50;99.90;;;;;;5118681;28;20407;-69
2022/04/15 07:54:48;;;;;;;29.67;20.92;;;13.50;99.90;;;;;;5117586;28;20027;-69
2022/04/15 07:57:17;;;;;;;28.80;20.30;;;13.50;99.90;;;;;;5117444;28;20038;-70
2022/04/15 07:59:43;;;;;;;29.90;19.88;;;13.50;99.90;;;;;;5118355;28;20059;-69
2022/04/15 08:02:10;;;;;;;23.50;19.05;;;13.30;99.90;;;;;;5118188;28;20042;-69
2022/04/15 08:04:41;;;;;;;23.63;19.77;;;13.20;99.90;;;;;;5100781;28;20039;-69
2022/04/15 08:07:07;;;;;;;25.33;19.17;;;13.10;99.90;;;;;;5118083;28;20435;-68
2022/04/15 08:09:33;;;;;;;25.85;20.00;;;13.10;99.90;;;;;;5117449;28;20130;-69
2022/04/15 08:11:58;;;;;;;24.80;18.88;;;13.20;99.90;;;;;;5117218;28;20031;-69
2022/04/15 08:14:24;;;;;;;24.55;19.67;;;13.30;99.90;;;;;;5118585;28;20379;-69
2022/04/15 08:16:50;;;;;;;21.77;18.35;;;13.20;99.90;;;;;;5100260;28;20088;-69
2022/04/15 08:19:17;;;;;;;21.30;18.05;;;13.10;99.90;;;;;;5117999;28;20276;-69
2022/04/15 08:21:43;;;;;;;24.27;18.50;;;13.20;99.90;;;;;;5117800;28;20388;-69
2022/04/15 08:24:08;;;;;;;21.10;16.95;;;13.10;99.90;;;;;;5066709;28;20050;-69
2022/04/15 08:26:34;;;;;;;24.08;18.05;;;13.00;99.90;;;;;;5118069;28;20096;-69
2022/04/15 08:29:00;;;;;;;21.00;18.75;;;12.90;99.90;;;;;;5117816;28;20409;-70
2022/04/15 08:31:26;;;;;;;22.10;18.60;;;12.90;99.90;;;;;;5118078;28;20063;-70
2022/04/15 08:33:52;;;;;;;22.50;18.58;;;12.80;99.90;;;;;;5100162;28;20027;-69
2022/04/15 08:36:18;;;;;;;22.55;18.88;;;12.50;99.90;;;;;;5117693;28;20027;-70
2022/04/15 08:38:44;;;;;;;22.48;18.13;;;12.60;99.90;;;;;;5116943;28;20027;-67
2022/04/15 08:41:12;;;;;;;19.92;17.88;;;12.20;99.90;;;;;;5116874;28;20031;-68
2022/04/15 08:43:39;;;;;;;18.55;16.65;;;12.50;99.90;;;;;;5116794;28;20456;-69
2022/04/15 08:46:06;;;;;;;17.92;15.98;;;12.30;99.90;;;;;;5117532;28;20031;-69
2022/04/15 08:48:32;;;;;;;18.88;16.88;;;12.30;99.90;;;;;;5116838;28;20089;-69
2022/04/15 08:50:59;;;;;;;20.75;17.42;;;12.60;99.90;;;;;;5116966;28;20023;-70
2022/04/15 08:53:27;;;;;;;21.02;17.33;;;12.80;99.90;;;;;;5116667;28;20191;-69
2022/04/15 08:55:52;;;;;;;20.30;18.05;;;12.70;99.90;;;;;;5116895;28;20032;-69
2022/04/15 08:58:18;;;;;;;20.33;17.35;;;12.70;99.90;;;;;;5117413;28;20092;-70
2022/04/15 09:00:44;;;;;;;24.80;20.38;;;12.30;99.90;;;;;;5099848;28;20039;-66
2022/04/15 09:03:10;;;;;;;21.10;18.75;;;12.50;99.90;;;;;;5100193;28;20027;-69
2022/04/15 09:05:36;;;;;;;23.17;18.85;;;12.50;99.90;;;;;;5118191;28;20387;-70
2022/04/15 09:08:04;;;;;;;23.38;19.13;;;12.40;99.90;;;;;;5120815;28;20096;-70
2022/04/15 09:10:31;;;;;;;23.27;19.08;;;12.30;99.90;;;;;;5121595;28;20495;-69
2022/04/15 09:12:57;;;;;;;21.77;18.20;;;12.70;99.90;;;;;;5121567;28;20036;-70
2022/04/15 09:15:23;;;;;;;19.45;16.95;;;13.20;99.90;;;;;;5121366;28;20058;-69
2022/04/15 09:17:52;;;;;;;20.85;17.23;;;13.60;99.90;;;;;;5121423;28;20061;-69
2022/04/15 09:20:20;;;;;;;18.38;15.82;;;13.50;99.90;;;;;;5120481;28;20043;-69
2022/04/15 09:22:46;;;;;;;17.42;14.90;;;13.40;99.90;;;;;;5120547;28;20120;-69
2022/04/15 09:25:13;;;;;;;17.77;15.93;;;12.70;99.90;;;;;;5121575;28;20024;-70
2022/04/15 09:27:39;;;;;;;19.13;16.35;;;12.60;99.90;;;;;;5103237;28;20035;-69
2022/04/15 09:30:06;;;;;;;19.13;16.02;;;12.50;99.90;;;;;;5121987;28;20387;-69
2022/04/15 09:32:32;;;;;;;19.98;16.48;;;12.50;99.90;;;;;;5120860;28;20149;-69
2022/04/15 09:35:05;;;;;;;17.60;15.65;;;12.90;99.90;;;;;;5103462;28;20322;-69
2022/04/15 09:37:37;;;;;;;16.92;14.20;;;13.10;99.90;;;;;;5121415;28;20060;-71
2022/04/15 09:40:03;;;;;;;15.57;13.95;;;12.90;99.90;;;;;;5120479;28;20496;-70
2022/04/15 09:42:29;;;;;;;18.30;15.80;;;12.80;99.90;;;;;;5120767;28;20031;-69
2022/04/15 09:45:00;;;;;;;17.20;14.82;;;12.90;99.90;;;;;;5103472;28;20043;-68
2022/04/15 09:47:27;;;;;;;18.08;15.43;;;13.00;99.90;;;;;;5120241;28;20050;-68
2022/04/15 09:49:53;;;;;;;17.67;14.38;;;13.70;99.90;;;;;;5120740;28;20165;-68
2022/04/15 09:52:25;;;;;;;19.65;14.48;;;13.40;99.90;;;;;;5119869;28;20110;-69
2022/04/15 09:54:56;;;;;;;15.07;13.43;;;14.00;99.90;;;;;;5103165;28;20023;-68
2022/04/15 09:57:29;;;;;;;16.35;14.23;;;14.20;99.90;;;;;;5119830;28;20043;-69
2022/04/15 09:59:55;;;;;;;;;;;14.20;99.90;;;;;;5120481;28;20063;-69
2022/04/15 10:02:23;;;;;;;16.65;14.02;;;13.70;99.90;;;;;;5120396;28;19907;-69
2022/04/15 10:04:49;;;;;;;16.52;14.50;;;14.20;99.90;;;;;;5121046;28;20040;-69
2022/04/15 10:07:15;;;;;;;15.73;13.50;;;14.10;99.90;;;;;;5119591;28;20035;-68
2022/04/15 10:09:42;;;;;;;17.65;14.70;;;14.60;99.90;;;;;;5119644;28;20423;-67
2022/04/15 10:12:08;;;;;;;19.58;15.90;;;14.80;99.90;;;;;;5119571;28;20035;-68
2022/04/15 10:14:35;;;;;;;18.70;13.98;;;14.40;99.90;;;;;;5119504;28;20331;-68
2022/04/15 10:17:02;;;;;;;19.48;15.75;;;14.70;99.90;;;;;;5102346;28;20085;-68
2022/04/15 10:19:29;;;;;;;19.75;15.48;;;14.70;99.90;;;;;;5118849;28;20111;-68
2022/04/15 10:21:56;;;;;;;20.67;16.35;;;14.80;99.90;;;;;;5120286;28;20359;-68
2022/04/15 10:24:25;;;;;;;22.45;16.33;;;14.00;99.90;;;;;;5119301;28;20097;-69
2022/04/15 10:26:57;;;;;;;21.80;16.63;;;14.50;99.90;;;;;;5102106;28;20045;-69
2022/04/15 10:29:23;;;;;;;;;;;14.70;99.90;;;;;;5119563;28;20019;-67
2022/04/15 10:31:52;;;;;;;23.38;17.15;;;14.60;99.90;;;;;;5119906;28;19912;-69
2022/04/15 10:34:19;;;;;;;21.77;16.55;;;14.50;99.90;;;;;;5119940;28;20034;-69
2022/04/15 10:36:48;;;;;;;20.92;16.48;;;14.50;99.90;;;;;;5119822;28;20396;-68
2022/04/15 10:39:16;;;;;;;23.75;17.48;;;14.50;99.90;;;;;;5119712;28;20269;-69
2022/04/15 10:41:42;;;;;;;20.45;16.05;;;14.90;99.90;;;;;;5119071;28;20031;-69
2022/04/15 10:44:23;;;;;;;17.67;13.73;;;14.40;99.90;;;;;;5119109;28;20054;-70
2022/04/15 10:46:49;;;;;;;21.58;16.25;;;15.30;99.90;;;;;;5119021;28;20036;-69
2022/04/15 10:49:30;;;;;;;21.27;15.52;;;16.00;99.90;;;;;;5120739;28;20027;-68
2022/04/15 10:52:01;;;;;;;19.38;15.65;;;16.60;99.90;;;;;;5101941;28;20051;-69
2022/04/15 10:54:36;;;;;;;20.23;15.80;;;17.30;99.90;;;;;;5118832;28;20102;-68
2022/04/15 10:57:04;;;;;;;18.67;14.80;;;17.60;99.90;;;;;;5119401;28;20269;-68
2022/04/15 11:02:34;;;;;;;15.18;12.43;;;19.20;99.90;;;;;;5119305;28;20027;-68
2022/04/15 11:05:00;;;;;;;18.52;13.25;;;20.30;99.90;;;;;;5118691;28;20276;-68
2022/04/15 11:07:28;;;;;;;18.60;13.85;;;20.60;99.90;;;;;;5119423;28;20023;-68
2022/04/15 11:09:55;;;;;;;16.08;12.57;;;20.10;99.90;;;;;;5119550;28;20159;-69
2022/04/15 11:12:51;;;;;;;16.30;13.00;;;20.30;99.90;;;;;;5118630;28;20020;-68
2022/04/15 11:15:55;;;;;;;16.20;12.75;;;20.60;99.90;;;;;;5106708;28;20048;-69
2022/04/15 11:18:21;;;;;;;16.55;13.30;;;20.80;99.90;;;;;;5118648;28;20028;-67
2022/04/15 11:20:47;;;;;;;17.73;15.02;;;21.00;99.90;;;;;;5119030;28;20038;-67
2022/04/15 11:23:13;;;;;;;20.40;15.65;;;20.20;99.90;;;;;;5101218;28;20080;-67
2022/04/15 11:25:45;;;;;;;17.17;14.15;;;21.10;99.90;;;;;;5101229;28;20036;-68
2022/04/15 11:28:11;;;;;;;;;;;20.60;99.90;;;;;;5119101;28;20067;-68
2022/04/15 11:30:37;;;;;;;16.33;13.82;;;21.40;99.90;;;;;;5117785;28;20339;-68
2022/04/15 11:33:04;;;;;;;17.85;13.52;;;21.70;99.90;;;;;;5118750;28;20397;-67
2022/04/15 11:35:35;;;;;;;17.50;15.15;;;21.70;99.90;;;;;;5117834;28;20058;-68
2022/04/15 11:38:07;;;;;;;14.55;13.07;;;21.40;99.90;;;;;;5118621;28;20043;-68
2022/04/15 11:40:37;;;;;;;13.38;11.93;;;21.70;99.90;;;;;;5117700;28;20034;-68
2022/04/15 11:43:08;;;;;;;13.77;11.88;;;21.60;99.90;;;;;;5118233;28;20047;-68
2022/04/15 11:45:41;;;;;;;15.70;13.65;;;22.10;99.90;;;;;;5118343;28;20030;-68
2022/04/15 11:48:38;;;;;;;17.55;14.52;;;21.80;99.90;;;;;;5118347;28;20042;-69
2022/04/15 11:51:03;;;;;;;19.35;15.90;;;22.30;99.90;;;;;;5101418;28;20047;-68
2022/04/15 11:53:30;;;;;;;20.17;16.60;;;23.10;99.90;;;;;;5101049;28;20055;-68
2022/04/15 11:55:58;;;;;;;20.98;16.52;;;22.90;99.90;;;;;;5118566;28;20036;-67
2022/04/15 11:58:31;;;;;;;22.02;17.35;;;23.20;99.90;;;;;;5118297;28;20039;-68
2022/04/15 12:00:58;;;;;;;21.73;17.30;;;23.20;99.90;;;;;;5118295;28;20046;-68
2022/04/15 12:03:25;;;;;;;19.77;16.58;;;24.70;99.90;;;;;;5117514;28;20042;-68
2022/04/15 12:05:54;;;;;;;17.58;15.02;;;24.40;99.90;;;;;;5118691;28;20032;-68
2022/04/15 12:08:21;;;;;;;16.63;14.80;;;23.90;99.90;;;;;;5100438;28;20035;-68
2022/04/15 12:10:49;;;;;;;14.40;12.55;;;23.80;99.90;;;;;;5118057;28;20035;-67
2022/04/15 12:13:16;;;;;;;18.45;15.48;;;25.20;99.90;;;;;;5100310;28;20055;-67
2022/04/15 12:15:44;;;;;;;17.77;15.82;;;26.30;97.30;;;;;;5117959;28;20307;-67
2022/04/15 12:18:10;;;;;;;18.10;15.38;;;25.50;96.20;;;;;;5117194;28;20032;-68
2022/04/15 12:20:39;;;;;;;18.25;15.43;;;24.10;97.20;;;;;;5118198;28;20303;-68
2022/04/15 12:23:10;;;;;;;21.40;18.98;;;25.50;96.90;;;;;;5117837;28;20019;-68
2022/04/15 12:31:24;;;;;;;20.85;17.52;;;25.00;96.20;;;;;;5117028;28;20039;-68
2022/04/15 12:33:50;;;;;;;20.00;17.48;;;26.50;94.30;;;;;;5118130;28;20047;-68
2022/04/15 12:36:17;;;;;;;16.67;14.82;;;25.00;95.50;;;;;;5116937;28;20038;-68
2022/04/15 12:39:04;;;;;;;21.98;18.30;;;26.90;94.10;;;;;;5117492;28;20043;-68